Marsh, Pennsylvania
Current Conditions -  °F | °C
As of 5:55 PM on Saturday 25 Oct 2014 (Local Time) from KMQS Reporting Station
Broken Clouds Broken Clouds  
Wind Chill: 18°   Ceiling: 6500
Heat Index: 18°   Visibility: 10mi
Dew Point:   Wind: 0mph
Humidity: 49%   Direction: NA
Pressure: 29.71"   Gusts: NA
Location:  40.1578°N, 75.7894°W
Report Text: KMQS 252155Z AUTO 00000KT 10SM BKN065 18/07 A2971 RMK AO2
Loading
Personal Weather Stations






























Interactive Weather Map
Tropical Storm Tracking
New forecast layout! Learn more

10-Day Weather Forecast

Advertisements
Track Severe Weather on mobile